Aviation Digital Data Service (ADDS)

Output produced by METARs form (1657 UTC 01 July 2015)
found at http://www.aviationweather.gov/adds/metars/
 
KLNS 011653Z 27012KT 9SM BKN038 25/17 A2984 RMK AO2 SLP100 T02500172
KLNS 011553Z 27008G19KT 10SM FEW030 25/18 A2984 RMK AO2 SLP100 T02500178
KLNS 011453Z 25010KT 10SM CLR 24/17 A2982 RMK AO2 SLP096 T02390167 55000
KLNS 011353Z 24009KT 10SM CLR 23/17 A2982 RMK AO2 SLP094 T02280167
KLNS 011253Z 26007KT 5SM HZ CLR 22/18 A2982 RMK AO2 SLP097 T02170183
KLNS 011153Z 24005KT 4SM BR CLR 20/18 A2982 RMK AO2 RAB1058E07 SLP097 P0000 60020 70034 T02000183 10200 20183 51009
KLNS 011053Z 27005KT 4SM BR CLR 19/18 A2981 RMK AO2 SLP093 T01890183
KLNS 010953Z 26007KT 7SM CLR 19/18 A2981 RMK AO2 RAE0857 SLP092 P0000 T01890178
KLNS 010853Z 27005KT 7SM -RA BKN050 BKN100 19/18 A2980 RMK AO2 SLP087 P0004 60020 T01890183 50005
KLNS 010753Z 19006KT 4SM RA BR FEW043 BKN075 OVC110 19/18 A2981 RMK AO2 LTG DSNT NE SLP091 P0012 T01940183
KLNS 010653Z 16009KT 5SM RA BR OVC110 19/18 A2982 RMK AO2 LTG DSNT E AND SE RAB14 SLP096 P0004 T01890178
KLNS 010553Z 25005KT 10SM FEW075 SCT100 19/17 A2978 RMK AO2 LTG DSNT ALQDS RAB04E50 TSB08E23 SLP081 P0011 60011 T01940172 10244 20194 58010
KLNS 010543Z 23006KT 10SM -RA FEW060 SCT080 BKN100 20/17 A2978 RMK AO2 LTG DSNT NE-S RAB04 TSB08E23 P0011 T02000172
KLNS 010529Z 21008KT 6SM VCTS -RA BR SCT055 BKN080 OVC100 19/17 A2979 RMK AO2 LTG DSNT NE-S RAB04 TSB08E23 P0010 T01940172
KLNS 010521Z 18009KT 4SM +TSRA BR BKN055 BKN070 OVC090 19/18 A2981 RMK AO2 LTG DSNT E-SW RAB04 TSB08 P0010 T01940178
KLNS 010514Z 20007KT 2 1/2SM +TSRA BR BKN049 BKN065 OVC090 19/18 A2981 RMK AO2 LTG DSNT NE AND S AND SW RAB04 TSB08 P0008 T01940178
KLNS 010503Z 23008KT 8SM VCTS FEW055 BKN095 OVC110 20/17 A2982 RMK AO2 LTG DSNT ALQDS T02000172
KLNS 010416Z 10SM VCTS FEW015 SCT042 SCT055 22/20 A2982 RMK AO2 LTG DSNT SW-NW T02170200
KLNS 010353Z 00000KT 8SM CLR 21/20 A2980 RMK AO2 LTG DSNT SW-NW SLP088 T02110200
KLNS 010253Z 16007KT 10SM CLR 22/20 A2981 RMK AO2 SLP091 T02220200 55001
KLNS 010153Z 17008KT 10SM CLR 23/19 A2981 RMK AO2 SLP092 T02280194
KLNS 010053Z 16009KT 10SM FEW019 BKN110 23/19 A2980 RMK AO2 SLP090 T02280194
KLNS 302353Z 10005KT 10SM FEW028 SCT040 BKN050 23/21 A2981 RMK AO2 LTG DSNT S AND SW SLP093 60002 T02330211 10261 20211 55002
KLNS 302253Z 00000KT 10SM CLR 24/21 A2980 RMK AO2 LTG DSNT S TSE2154B02E17 SLP090 T02390206
KLNS 302223Z 12003KT 10SM FEW029 23/20 A2981 RMK AO2 LTG DSNT NE TSE2154B02E17 T02330200
KLNS 302202Z 00000KT 10SM TS SCT028 BKN060 OVC095 22/19 A2981 RMK AO2 LTG DSNT NE TSE2154B02 T02220189
KLNS 302157Z 34006KT 10SM BKN028 BKN055 OVC075 21/19 A2981 RMK AO2 TSE54 T02110189
KLNS 302153Z 25007KT 10SM TS SCT028 BKN055 OVC075 21/19 A2982 RMK AO2 WSHFT 2132 RAB30E50 TSB02 SLP096 P0002 T02110189
KLNS 302108Z 17008G20KT 10SM TS FEW110 24/19 A2980 RMK AO2 LTG DSNT N TSB02 T02440189
KLNS 302053Z 17011G23KT 10SM VCTS FEW110 25/19 A2980 RMK AO2 LTG DSNT W SLP089 T02500194 56015
KLNS 302049Z 17012G23KT 10SM VCTS CLR 26/20 A2980 RMK AO2 LTG DSNT W
KLNS 301953Z 17015G21KT 10SM FEW045 26/21 A2982 RMK AO2 SLP096 T02610206
KLNS 301853Z 17014KT 10SM BKN040 25/19 A2985 RMK AO2 LTG DSNT E AND SE SLP104 T02500189
KLNS 301753Z 19017G21KT 10SM FEW025 SCT030 BKN060 26/21 A2985 RMK AO2 LTG DSNT NE-S RAE09 SLP106 P0000 60001 T02610211 10267 20200 58021
KLNS 301653Z 19014G19KT 7SM -RA SCT022 BKN035 BKN055 24/21 A2988 RMK AO2 LTG DSNT N RAB49 SLP115 P0001 T02440211
KLNS 301553Z 17010KT 10SM BKN017 OVC023 24/21 A2990 RMK AO2 SLP121 T02390211
KLNS 301516Z 17008KT 10SM OVC016 23/21 A2991 RMK AO2 T02330206
KLNS 301453Z 18005KT 10SM OVC014 23/21 A2992 RMK AO2 SLP128 60000 T02280206 58003
KLNS 301353Z 15004KT 10SM OVC011 22/19 A2992 RMK AO2 RAE00 SLP128 P0000 T02170194
KLNS 301253Z 13003KT 10SM -RA OVC011 21/18 A2993 RMK AO2 RAB16E29B50 SLP131 P0000 T02060183
KLNS 301202Z 15007KT 10SM BKN012 OVC075 20/18 A2992 RMK AO2 T02000178
KLNS 301153Z 14007KT 10SM SCT012 OVC075 20/18 A2992 RMK AO2 SLP131 T02000178 10200 20161 53003
KLNS 301053Z 09004KT 10SM SCT075 BKN095 19/17 A2992 RMK AO2 SLP130 T01890172
KLNS 300953Z AUTO 07003KT 10SM BKN070 17/16 A2992 RMK AO2 SLP128 T01720161
KLNS 300853Z AUTO 13006KT 10SM FEW070 18/16 A2991 RMK AO2 SLP128 T01830161 56008
KLNS 300753Z AUTO 10004KT 10SM OVC080 17/16 A2992 RMK AO2 SLP129 T01720156
KLNS 300653Z AUTO 08004KT 10SM OVC080 17/16 A2993 RMK AO2 SLP132 T01720156
KLNS 300553Z AUTO 08003KT 10SM FEW090 17/15 A2994 RMK AO2 SLP136 T01670150 10239 20167 58001